sensor_id;sensor_type;location;lat;lon;timestamp;P1;durP1;ratioP1;P2;durP2;ratioP2
54865;SDS011;40754;52.094;4.328;2022-10-16T00:02:12;6.20;;;1.73;;
54865;SDS011;40754;52.094;4.328;2022-10-16T00:04:37;4.22;;;1.70;;
54865;SDS011;40754;52.094;4.328;2022-10-16T00:07:03;3.63;;;1.38;;
54865;SDS011;40754;52.094;4.328;2022-10-16T00:09:28;3.28;;;1.65;;
54865;SDS011;40754;52.094;4.328;2022-10-16T00:11:53;3.28;;;1.50;;
54865;SDS011;40754;52.094;4.328;2022-10-16T00:14:23;3.65;;;1.50;;
54865;SDS011;40754;52.094;4.328;2022-10-16T00:16:48;3.85;;;1.25;;
54865;SDS011;40754;52.094;4.328;2022-10-16T00:19:14;1.85;;;1.27;;
54865;SDS011;40754;52.094;4.328;2022-10-16T00:21:39;2.42;;;1.40;;
54865;SDS011;40754;52.094;4.328;2022-10-16T00:24:06;5.88;;;1.60;;
54865;SDS011;40754;52.094;4.328;2022-10-16T00:26:35;3.55;;;1.35;;
54865;SDS011;40754;52.094;4.328;2022-10-16T00:29:00;2.45;;;1.48;;
54865;SDS011;40754;52.094;4.328;2022-10-16T00:31:29;4.47;;;1.73;;
54865;SDS011;40754;52.094;4.328;2022-10-16T00:33:54;6.68;;;2.00;;
54865;SDS011;40754;52.094;4.328;2022-10-16T00:36:21;4.07;;;1.30;;
54865;SDS011;40754;52.094;4.328;2022-10-16T00:38:47;6.50;;;1.65;;
54865;SDS011;40754;52.094;4.328;2022-10-16T00:41:13;6.38;;;1.88;;
54865;SDS011;40754;52.094;4.328;2022-10-16T00:49:00;2.90;;;1.20;;
54865;SDS011;40754;52.094;4.328;2022-10-16T00:51:28;3.08;;;1.35;;
54865;SDS011;40754;52.094;4.328;2022-10-16T00:53:55;3.72;;;1.50;;
54865;SDS011;40754;52.094;4.328;2022-10-16T00:56:20;2.17;;;1.08;;
54865;SDS011;40754;52.094;4.328;2022-10-16T00:58:45;3.83;;;1.20;;
54865;SDS011;40754;52.094;4.328;2022-10-16T01:01:11;3.13;;;1.33;;
54865;SDS011;40754;52.094;4.328;2022-10-16T01:03:37;6.72;;;1.27;;
54865;SDS011;40754;52.094;4.328;2022-10-16T01:11:16;3.22;;;1.23;;
54865;SDS011;40754;52.094;4.328;2022-10-16T01:13:44;3.53;;;1.20;;
54865;SDS011;40754;52.094;4.328;2022-10-16T01:16:24;6.22;;;1.25;;
54865;SDS011;40754;52.094;4.328;2022-10-16T01:19:02;5.57;;;1.40;;
54865;SDS011;40754;52.094;4.328;2022-10-16T01:21:33;6.85;;;1.67;;
54865;SDS011;40754;52.094;4.328;2022-10-16T01:24:08;1.98;;;1.17;;
54865;SDS011;40754;52.094;4.328;2022-10-16T01:29:21;6.90;;;1.70;;
54865;SDS011;40754;52.094;4.328;2022-10-16T01:31:48;3.85;;;1.60;;
54865;SDS011;40754;52.094;4.328;2022-10-16T01:34:19;3.15;;;1.20;;
54865;SDS011;40754;52.094;4.328;2022-10-16T01:37:05;3.30;;;1.58;;
54865;SDS011;40754;52.094;4.328;2022-10-16T01:39:33;3.17;;;1.42;;
54865;SDS011;40754;52.094;4.328;2022-10-16T01:42:04;10.02;;;1.60;;
54865;SDS011;40754;52.094;4.328;2022-10-16T01:44:32;2.13;;;1.02;;
54865;SDS011;40754;52.094;4.328;2022-10-16T01:47:01;3.05;;;0.98;;
54865;SDS011;40754;52.094;4.328;2022-10-16T01:49:28;2.30;;;1.65;;
54865;SDS011;40754;52.094;4.328;2022-10-16T01:51:55;4.50;;;1.33;;
54865;SDS011;40754;52.094;4.328;2022-10-16T01:54:21;3.05;;;1.30;;
54865;SDS011;40754;52.094;4.328;2022-10-16T01:56:48;1.73;;;1.20;;
54865;SDS011;40754;52.094;4.328;2022-10-16T01:59:16;3.75;;;1.30;;
54865;SDS011;40754;52.094;4.328;2022-10-16T02:01:43;2.22;;;1.02;;
54865;SDS011;40754;52.094;4.328;2022-10-16T02:04:15;3.53;;;1.48;;
54865;SDS011;40754;52.094;4.328;2022-10-16T02:06:41;2.38;;;1.30;;
54865;SDS011;40754;52.094;4.328;2022-10-16T02:09:08;2.17;;;1.02;;
54865;SDS011;40754;52.094;4.328;2022-10-16T02:11:33;1.95;;;1.10;;
54865;SDS011;40754;52.094;4.328;2022-10-16T02:14:00;3.60;;;1.60;;
54865;SDS011;40754;52.094;4.328;2022-10-16T02:16:32;2.85;;;1.48;;
54865;SDS011;40754;52.094;4.328;2022-10-16T02:18:58;5.75;;;1.60;;
54865;SDS011;40754;52.094;4.328;2022-10-16T02:21:25;3.35;;;1.58;;
54865;SDS011;40754;52.094;4.328;2022-10-16T02:23:57;5.78;;;1.90;;
54865;SDS011;40754;52.094;4.328;2022-10-16T02:26:27;6.80;;;1.73;;
54865;SDS011;40754;52.094;4.328;2022-10-16T02:28:54;3.25;;;1.83;;
54865;SDS011;40754;52.094;4.328;2022-10-16T02:31:23;2.72;;;1.70;;
54865;SDS011;40754;52.094;4.328;2022-10-16T02:33:50;3.65;;;1.80;;
54865;SDS011;40754;52.094;4.328;2022-10-16T02:36:16;4.03;;;1.67;;
54865;SDS011;40754;52.094;4.328;2022-10-16T02:38:45;4.88;;;1.80;;
54865;SDS011;40754;52.094;4.328;2022-10-16T02:41:10;7.35;;;1.70;;
54865;SDS011;40754;52.094;4.328;2022-10-16T02:43:39;2.80;;;1.70;;
54865;SDS011;40754;52.094;4.328;2022-10-16T02:46:04;4.35;;;2.22;;
54865;SDS011;40754;52.094;4.328;2022-10-16T02:48:30;4.65;;;2.03;;
54865;SDS011;40754;52.094;4.328;2022-10-16T02:50:55;4.80;;;1.75;;
54865;SDS011;40754;52.094;4.328;2022-10-16T02:53:22;3.85;;;1.90;;
54865;SDS011;40754;52.094;4.328;2022-10-16T02:55:47;4.63;;;1.80;;
54865;SDS011;40754;52.094;4.328;2022-10-16T02:58:12;3.03;;;1.75;;
54865;SDS011;40754;52.094;4.328;2022-10-16T03:00:37;5.72;;;2.10;;
54865;SDS011;40754;52.094;4.328;2022-10-16T03:03:03;9.63;;;2.03;;
54865;SDS011;40754;52.094;4.328;2022-10-16T03:05:28;10.73;;;2.15;;
54865;SDS011;40754;52.094;4.328;2022-10-16T03:07:53;5.18;;;1.88;;
54865;SDS011;40754;52.094;4.328;2022-10-16T03:10:19;3.72;;;1.58;;
54865;SDS011;40754;52.094;4.328;2022-10-16T03:12:44;7.38;;;1.60;;
54865;SDS011;40754;52.094;4.328;2022-10-16T03:15:09;6.82;;;1.80;;
54865;SDS011;40754;52.094;4.328;2022-10-16T03:17:37;2.83;;;1.63;;
54865;SDS011;40754;52.094;4.328;2022-10-16T03:20:03;5.78;;;1.75;;
54865;SDS011;40754;52.094;4.328;2022-10-16T03:22:28;3.95;;;1.88;;
54865;SDS011;40754;52.094;4.328;2022-10-16T03:24:53;13.40;;;2.05;;
54865;SDS011;40754;52.094;4.328;2022-10-16T03:27:19;4.75;;;1.60;;
54865;SDS011;40754;52.094;4.328;2022-10-16T03:29:44;5.75;;;1.73;;
54865;SDS011;40754;52.094;4.328;2022-10-16T03:32:09;6.60;;;1.98;;
54865;SDS011;40754;52.094;4.328;2022-10-16T03:34:35;6.88;;;1.40;;
54865;SDS011;40754;52.094;4.328;2022-10-16T03:37:00;4.57;;;1.42;;
54865;SDS011;40754;52.094;4.328;2022-10-16T03:39:34;7.07;;;1.63;;
54865;SDS011;40754;52.094;4.328;2022-10-16T03:42:00;2.97;;;1.63;;
54865;SDS011;40754;52.094;4.328;2022-10-16T03:44:25;5.82;;;1.60;;
54865;SDS011;40754;52.094;4.328;2022-10-16T03:46:50;4.63;;;1.50;;
54865;SDS011;40754;52.094;4.328;2022-10-16T03:49:16;4.72;;;1.40;;
54865;SDS011;40754;52.094;4.328;2022-10-16T03:51:41;6.88;;;1.58;;
54865;SDS011;40754;52.094;4.328;2022-10-16T03:54:07;5.53;;;1.48;;
54865;SDS011;40754;52.094;4.328;2022-10-16T03:56:32;5.20;;;1.90;;
54865;SDS011;40754;52.094;4.328;2022-10-16T03:58:57;7.50;;;1.63;;
54865;SDS011;40754;52.094;4.328;2022-10-16T04:01:24;3.38;;;1.38;;
54865;SDS011;40754;52.094;4.328;2022-10-16T04:03:49;7.53;;;1.95;;
54865;SDS011;40754;52.094;4.328;2022-10-16T04:06:14;6.72;;;2.22;;
54865;SDS011;40754;52.094;4.328;2022-10-16T04:08:42;5.75;;;1.80;;
54865;SDS011;40754;52.094;4.328;2022-10-16T04:11:07;3.83;;;1.20;;
54865;SDS011;40754;52.094;4.328;2022-10-16T04:13:33;6.57;;;1.58;;
54865;SDS011;40754;52.094;4.328;2022-10-16T04:15:58;5.07;;;1.50;;
54865;SDS011;40754;52.094;4.328;2022-10-16T04:18:27;3.22;;;1.60;;
54865;SDS011;40754;52.094;4.328;2022-10-16T04:20:53;5.72;;;1.52;;
54865;SDS011;40754;52.094;4.328;2022-10-16T04:23:18;5.70;;;1.45;;
54865;SDS011;40754;52.094;4.328;2022-10-16T04:25:43;6.22;;;1.58;;
54865;SDS011;40754;52.094;4.328;2022-10-16T04:28:09;2.97;;;1.25;;
54865;SDS011;40754;52.094;4.328;2022-10-16T04:30:37;4.75;;;1.67;;
54865;SDS011;40754;52.094;4.328;2022-10-16T04:33:02;4.05;;;1.45;;
54865;SDS011;40754;52.094;4.328;2022-10-16T04:35:27;11.48;;;1.95;;
54865;SDS011;40754;52.094;4.328;2022-10-16T04:37:52;4.82;;;2.00;;
54865;SDS011;40754;52.094;4.328;2022-10-16T04:40:18;8.38;;;1.65;;
54865;SDS011;40754;52.094;4.328;2022-10-16T04:42:43;4.28;;;1.42;;
54865;SDS011;40754;52.094;4.328;2022-10-16T04:45:09;5.57;;;1.50;;
54865;SDS011;40754;52.094;4.328;2022-10-16T04:47:37;3.17;;;1.77;;
54865;SDS011;40754;52.094;4.328;2022-10-16T04:50:02;4.82;;;1.70;;
54865;SDS011;40754;52.094;4.328;2022-10-16T04:52:34;6.18;;;1.65;;
54865;SDS011;40754;52.094;4.328;2022-10-16T04:54:59;5.95;;;1.92;;
54865;SDS011;40754;52.094;4.328;2022-10-16T04:57:27;6.43;;;2.10;;
54865;SDS011;40754;52.094;4.328;2022-10-16T04:59:53;7.85;;;1.85;;
54865;SDS011;40754;52.094;4.328;2022-10-16T05:02:18;10.70;;;2.15;;
54865;SDS011;40754;52.094;4.328;2022-10-16T05:04:46;7.32;;;2.00;;
54865;SDS011;40754;52.094;4.328;2022-10-16T05:07:11;8.90;;;1.95;;
54865;SDS011;40754;52.094;4.328;2022-10-16T05:09:36;6.45;;;1.90;;
54865;SDS011;40754;52.094;4.328;2022-10-16T05:12:02;9.50;;;2.50;;
54865;SDS011;40754;52.094;4.328;2022-10-16T05:14:28;5.82;;;1.88;;
54865;SDS011;40754;52.094;4.328;2022-10-16T05:16:54;4.78;;;1.90;;
54865;SDS011;40754;52.094;4.328;2022-10-16T05:19:19;10.50;;;2.63;;
54865;SDS011;40754;52.094;4.328;2022-10-16T05:21:47;7.40;;;1.70;;
54865;SDS011;40754;52.094;4.328;2022-10-16T05:24:12;8.15;;;2.03;;
54865;SDS011;40754;52.094;4.328;2022-10-16T05:26:38;6.25;;;2.22;;
54865;SDS011;40754;52.094;4.328;2022-10-16T05:29:24;7.05;;;1.98;;
54865;SDS011;40754;52.094;4.328;2022-10-16T05:31:55;5.15;;;2.10;;
54865;SDS011;40754;52.094;4.328;2022-10-16T05:34:21;5.53;;;2.15;;
54865;SDS011;40754;52.094;4.328;2022-10-16T05:36:52;7.50;;;2.60;;
54865;SDS011;40754;52.094;4.328;2022-10-16T05:39:17;5.07;;;2.17;;
54865;SDS011;40754;52.094;4.328;2022-10-16T05:41:46;5.60;;;2.30;;
54865;SDS011;40754;52.094;4.328;2022-10-16T05:44:11;7.47;;;2.60;;
54865;SDS011;40754;52.094;4.328;2022-10-16T05:46:37;9.48;;;2.58;;
54865;SDS011;40754;52.094;4.328;2022-10-16T05:49:03;7.18;;;2.35;;
54865;SDS011;40754;52.094;4.328;2022-10-16T05:51:28;7.57;;;2.55;;
54865;SDS011;40754;52.094;4.328;2022-10-16T05:53:53;8.40;;;2.50;;
54865;SDS011;40754;52.094;4.328;2022-10-16T05:56:19;10.05;;;2.83;;
54865;SDS011;40754;52.094;4.328;2022-10-16T05:58:44;7.70;;;2.50;;
54865;SDS011;40754;52.094;4.328;2022-10-16T06:01:13;9.50;;;2.70;;
54865;SDS011;40754;52.094;4.328;2022-10-16T06:03:39;6.38;;;2.53;;
54865;SDS011;40754;52.094;4.328;2022-10-16T06:06:15;8.20;;;2.70;;
54865;SDS011;40754;52.094;4.328;2022-10-16T06:08:42;7.90;;;2.63;;
54865;SDS011;40754;52.094;4.328;2022-10-16T06:11:10;7.57;;;2.28;;
54865;SDS011;40754;52.094;4.328;2022-10-16T06:13:36;7.43;;;2.35;;
54865;SDS011;40754;52.094;4.328;2022-10-16T06:16:02;4.85;;;2.20;;
54865;SDS011;40754;52.094;4.328;2022-10-16T06:18:28;8.15;;;2.50;;
54865;SDS011;40754;52.094;4.328;2022-10-16T06:20:55;15.57;;;2.13;;
54865;SDS011;40754;52.094;4.328;2022-10-16T06:23:20;10.18;;;2.30;;
54865;SDS011;40754;52.094;4.328;2022-10-16T06:25:45;9.77;;;2.05;;
54865;SDS011;40754;52.094;4.328;2022-10-16T06:28:11;10.50;;;2.10;;
54865;SDS011;40754;52.094;4.328;2022-10-16T06:30:39;8.60;;;2.38;;
54865;SDS011;40754;52.094;4.328;2022-10-16T06:33:08;8.27;;;2.28;;
54865;SDS011;40754;52.094;4.328;2022-10-16T06:38:32;10.55;;;2.28;;
54865;SDS011;40754;52.094;4.328;2022-10-16T06:40:58;10.02;;;1.88;;
54865;SDS011;40754;52.094;4.328;2022-10-16T06:43:23;12.90;;;2.10;;
54865;SDS011;40754;52.094;4.328;2022-10-16T06:45:52;6.80;;;2.00;;
54865;SDS011;40754;52.094;4.328;2022-10-16T06:51:11;13.40;;;2.30;;
54865;SDS011;40754;52.094;4.328;2022-10-16T06:53:59;8.65;;;2.17;;
54865;SDS011;40754;52.094;4.328;2022-10-16T06:56:45;11.35;;;2.17;;
54865;SDS011;40754;52.094;4.328;2022-10-16T06:59:14;10.85;;;2.08;;
54865;SDS011;40754;52.094;4.328;2022-10-16T07:01:42;10.38;;;2.17;;
54865;SDS011;40754;52.094;4.328;2022-10-16T07:04:18;11.32;;;2.47;;
54865;SDS011;40754;52.094;4.328;2022-10-16T07:06:47;12.07;;;2.35;;
54865;SDS011;40754;52.094;4.328;2022-10-16T07:09:12;17.80;;;2.95;;
54865;SDS011;40754;52.094;4.328;2022-10-16T07:11:38;7.05;;;2.40;;
54865;SDS011;40754;52.094;4.328;2022-10-16T07:16:58;8.60;;;2.47;;
54865;SDS011;40754;52.094;4.328;2022-10-16T07:19:24;10.05;;;2.50;;
54865;SDS011;40754;52.094;4.328;2022-10-16T07:21:50;13.90;;;3.20;;
54865;SDS011;40754;52.094;4.328;2022-10-16T07:24:16;15.10;;;2.60;;
54865;SDS011;40754;52.094;4.328;2022-10-16T07:26:42;9.45;;;2.58;;
54865;SDS011;40754;52.094;4.328;2022-10-16T07:32:11;7.88;;;2.55;;
54865;SDS011;40754;52.094;4.328;2022-10-16T07:34:40;12.15;;;2.88;;
54865;SDS011;40754;52.094;4.328;2022-10-16T07:37:06;10.57;;;2.75;;
54865;SDS011;40754;52.094;4.328;2022-10-16T07:39:34;12.40;;;3.00;;
54865;SDS011;40754;52.094;4.328;2022-10-16T07:42:03;11.10;;;2.95;;
54865;SDS011;40754;52.094;4.328;2022-10-16T07:44:34;7.72;;;2.47;;
54865;SDS011;40754;52.094;4.328;2022-10-16T07:50:09;11.93;;;2.75;;
54865;SDS011;40754;52.094;4.328;2022-10-16T07:52:37;8.30;;;2.80;;
54865;SDS011;40754;52.094;4.328;2022-10-16T07:55:03;15.23;;;2.83;;
54865;SDS011;40754;52.094;4.328;2022-10-16T07:57:29;6.95;;;2.22;;
54865;SDS011;40754;52.094;4.328;2022-10-16T08:00:00;13.18;;;3.05;;
54865;SDS011;40754;52.094;4.328;2022-10-16T08:02:38;9.75;;;2.30;;
54865;SDS011;40754;52.094;4.328;2022-10-16T08:05:04;14.02;;;3.00;;
54865;SDS011;40754;52.094;4.328;2022-10-16T08:07:30;10.90;;;2.72;;
54865;SDS011;40754;52.094;4.328;2022-10-16T08:10:19;9.23;;;2.58;;
54865;SDS011;40754;52.094;4.328;2022-10-16T08:15:33;6.68;;;2.45;;
54865;SDS011;40754;52.094;4.328;2022-10-16T08:18:00;13.00;;;2.97;;
54865;SDS011;40754;52.094;4.328;2022-10-16T08:20:34;13.25;;;2.45;;
54865;SDS011;40754;52.094;4.328;2022-10-16T08:22:59;11.68;;;2.28;;
54865;SDS011;40754;52.094;4.328;2022-10-16T08:25:25;13.82;;;2.88;;
54865;SDS011;40754;52.094;4.328;2022-10-16T08:27:51;9.80;;;2.25;;
54865;SDS011;40754;52.094;4.328;2022-10-16T08:30:20;12.23;;;2.63;;
54865;SDS011;40754;52.094;4.328;2022-10-16T08:32:46;9.18;;;2.63;;
54865;SDS011;40754;52.094;4.328;2022-10-16T08:35:12;13.40;;;2.47;;
54865;SDS011;40754;52.094;4.328;2022-10-16T08:37:40;15.52;;;2.90;;
54865;SDS011;40754;52.094;4.328;2022-10-16T08:40:11;15.07;;;2.40;;
54865;SDS011;40754;52.094;4.328;2022-10-16T08:42:50;8.48;;;2.40;;
54865;SDS011;40754;52.094;4.328;2022-10-16T08:48:20;18.17;;;3.35;;
54865;SDS011;40754;52.094;4.328;2022-10-16T08:50:49;19.33;;;3.25;;
54865;SDS011;40754;52.094;4.328;2022-10-16T08:53:30;17.63;;;3.00;;
54865;SDS011;40754;52.094;4.328;2022-10-16T08:55:56;12.05;;;2.55;;
54865;SDS011;40754;52.094;4.328;2022-10-16T08:58:26;14.52;;;3.13;;
54865;SDS011;40754;52.094;4.328;2022-10-16T09:00:59;13.82;;;2.90;;
54865;SDS011;40754;52.094;4.328;2022-10-16T09:03:44;17.17;;;3.80;;
54865;SDS011;40754;52.094;4.328;2022-10-16T09:09:18;15.15;;;2.65;;
54865;SDS011;40754;52.094;4.328;2022-10-16T09:11:51;15.70;;;3.22;;
54865;SDS011;40754;52.094;4.328;2022-10-16T09:17:04;16.13;;;2.85;;
54865;SDS011;40754;52.094;4.328;2022-10-16T09:19:38;16.15;;;2.92;;
54865;SDS011;40754;52.094;4.328;2022-10-16T09:22:10;17.38;;;2.63;;
54865;SDS011;40754;52.094;4.328;2022-10-16T09:24:37;19.42;;;3.63;;
54865;SDS011;40754;52.094;4.328;2022-10-16T09:27:03;22.77;;;2.97;;
54865;SDS011;40754;52.094;4.328;2022-10-16T09:29:38;11.60;;;3.08;;
54865;SDS011;40754;52.094;4.328;2022-10-16T09:32:10;17.45;;;2.90;;
54865;SDS011;40754;52.094;4.328;2022-10-16T09:34:37;17.27;;;3.50;;
54865;SDS011;40754;52.094;4.328;2022-10-16T09:37:05;19.25;;;2.47;;
54865;SDS011;40754;52.094;4.328;2022-10-16T09:42:32;20.70;;;2.95;;
54865;SDS011;40754;52.094;4.328;2022-10-16T09:45:00;16.63;;;3.15;;
54865;SDS011;40754;52.094;4.328;2022-10-16T09:47:26;15.90;;;3.45;;
54865;SDS011;40754;52.094;4.328;2022-10-16T09:50:03;17.73;;;3.00;;
54865;SDS011;40754;52.094;4.328;2022-10-16T09:52:33;18.70;;;3.10;;
54865;SDS011;40754;52.094;4.328;2022-10-16T09:55:00;18.13;;;3.25;;
54865;SDS011;40754;52.094;4.328;2022-10-16T09:57:28;16.60;;;2.72;;
54865;SDS011;40754;52.094;4.328;2022-10-16T09:59:55;20.75;;;3.72;;
54865;SDS011;40754;52.094;4.328;2022-10-16T10:03:01;18.92;;;2.92;;
54865;SDS011;40754;52.094;4.328;2022-10-16T10:05:42;13.43;;;2.67;;
54865;SDS011;40754;52.094;4.328;2022-10-16T10:08:23;16.23;;;3.25;;
54865;SDS011;40754;52.094;4.328;2022-10-16T10:10:51;12.57;;;2.90;;
54865;SDS011;40754;52.094;4.328;2022-10-16T10:13:21;14.27;;;3.03;;
54865;SDS011;40754;52.094;4.328;2022-10-16T10:15:49;15.57;;;3.55;;
54865;SDS011;40754;52.094;4.328;2022-10-16T10:18:16;22.52;;;3.38;;
54865;SDS011;40754;52.094;4.328;2022-10-16T10:20:45;13.15;;;3.28;;
54865;SDS011;40754;52.094;4.328;2022-10-16T10:23:23;18.45;;;3.03;;
54865;SDS011;40754;52.094;4.328;2022-10-16T10:26:26;16.38;;;3.10;;
54865;SDS011;40754;52.094;4.328;2022-10-16T10:31:29;12.93;;;3.10;;
54865;SDS011;40754;52.094;4.328;2022-10-16T10:42:28;12.55;;;2.70;;
54865;SDS011;40754;52.094;4.328;2022-10-16T10:55:23;12.93;;;3.63;;
54865;SDS011;40754;52.094;4.328;2022-10-16T11:05:49;9.32;;;3.08;;
54865;SDS011;40754;52.094;4.328;2022-10-16T11:08:19;11.90;;;2.88;;
54865;SDS011;40754;52.094;4.328;2022-10-16T11:13:47;10.23;;;2.33;;
54865;SDS011;40754;52.094;4.328;2022-10-16T11:16:27;10.57;;;3.37;;
54865;SDS011;40754;52.094;4.328;2022-10-16T11:19:03;11.93;;;2.20;;
54865;SDS011;40754;52.094;4.328;2022-10-16T11:21:30;14.02;;;2.33;;
54865;SDS011;40754;52.094;4.328;2022-10-16T11:23:59;11.05;;;2.38;;
54865;SDS011;40754;52.094;4.328;2022-10-16T11:26:33;10.15;;;2.38;;
54865;SDS011;40754;52.094;4.328;2022-10-16T11:28:59;10.82;;;2.58;;
54865;SDS011;40754;52.094;4.328;2022-10-16T11:34:06;8.38;;;1.90;;
54865;SDS011;40754;52.094;4.328;2022-10-16T11:36:38;12.30;;;2.85;;
54865;SDS011;40754;52.094;4.328;2022-10-16T11:41:42;13.73;;;2.75;;
54865;SDS011;40754;52.094;4.328;2022-10-16T11:47:10;8.73;;;2.67;;
54865;SDS011;40754;52.094;4.328;2022-10-16T11:49:38;16.30;;;2.90;;
54865;SDS011;40754;52.094;4.328;2022-10-16T11:52:48;11.68;;;2.38;;
54865;SDS011;40754;52.094;4.328;2022-10-16T11:57:41;12.75;;;2.63;;
54865;SDS011;40754;52.094;4.328;2022-10-16T12:02:35;14.48;;;2.85;;
54865;SDS011;40754;52.094;4.328;2022-10-16T12:05:21;12.10;;;2.80;;
54865;SDS011;40754;52.094;4.328;2022-10-16T12:08:03;12.88;;;2.45;;
54865;SDS011;40754;52.094;4.328;2022-10-16T12:10:32;10.77;;;2.70;;
54865;SDS011;40754;52.094;4.328;2022-10-16T12:13:01;12.75;;;3.13;;
54865;SDS011;40754;52.094;4.328;2022-10-16T12:15:28;8.57;;;2.38;;
54865;SDS011;40754;52.094;4.328;2022-10-16T12:17:54;9.48;;;2.30;;
54865;SDS011;40754;52.094;4.328;2022-10-16T12:20:25;7.07;;;1.98;;
54865;SDS011;40754;52.094;4.328;2022-10-16T12:22:52;8.55;;;2.60;;
54865;SDS011;40754;52.094;4.328;2022-10-16T12:25:22;10.65;;;2.80;;
54865;SDS011;40754;52.094;4.328;2022-10-16T12:30:23;11.15;;;2.90;;
54865;SDS011;40754;52.094;4.328;2022-10-16T12:32:56;9.25;;;2.40;;
54865;SDS011;40754;52.094;4.328;2022-10-16T12:35:23;6.30;;;2.17;;
54865;SDS011;40754;52.094;4.328;2022-10-16T12:37:49;10.63;;;2.40;;
54865;SDS011;40754;52.094;4.328;2022-10-16T12:42:52;9.43;;;2.45;;
54865;SDS011;40754;52.094;4.328;2022-10-16T12:45:28;11.30;;;2.58;;
54865;SDS011;40754;52.094;4.328;2022-10-16T12:47:54;14.88;;;2.67;;
54865;SDS011;40754;52.094;4.328;2022-10-16T12:50:28;13.40;;;2.60;;
54865;SDS011;40754;52.094;4.328;2022-10-16T12:52:55;12.13;;;2.63;;
54865;SDS011;40754;52.094;4.328;2022-10-16T12:55:21;13.32;;;2.97;;
54865;SDS011;40754;52.094;4.328;2022-10-16T12:58:10;9.75;;;2.50;;
54865;SDS011;40754;52.094;4.328;2022-10-16T13:00:44;11.35;;;2.42;;
54865;SDS011;40754;52.094;4.328;2022-10-16T13:14:23;10.45;;;2.80;;
54865;SDS011;40754;52.094;4.328;2022-10-16T13:17:06;12.93;;;2.78;;
54865;SDS011;40754;52.094;4.328;2022-10-16T13:19:53;16.35;;;2.90;;
54865;SDS011;40754;52.094;4.328;2022-10-16T13:27:38;9.20;;;2.60;;
54865;SDS011;40754;52.094;4.328;2022-10-16T13:30:18;11.00;;;2.70;;
54865;SDS011;40754;52.094;4.328;2022-10-16T13:32:48;12.82;;;2.95;;
54865;SDS011;40754;52.094;4.328;2022-10-16T13:35:24;18.95;;;2.75;;
54865;SDS011;40754;52.094;4.328;2022-10-16T13:40:31;12.13;;;2.65;;
54865;SDS011;40754;52.094;4.328;2022-10-16T13:42:59;10.77;;;2.90;;
54865;SDS011;40754;52.094;4.328;2022-10-16T13:45:24;16.65;;;2.80;;
54865;SDS011;40754;52.094;4.328;2022-10-16T13:50:59;15.77;;;3.00;;
54865;SDS011;40754;52.094;4.328;2022-10-16T13:53:24;11.70;;;2.70;;
54865;SDS011;40754;52.094;4.328;2022-10-16T13:55:50;15.93;;;3.65;;
54865;SDS011;40754;52.094;4.328;2022-10-16T13:58:17;12.75;;;2.70;;
54865;SDS011;40754;52.094;4.328;2022-10-16T14:00:56;18.83;;;3.85;;
54865;SDS011;40754;52.094;4.328;2022-10-16T14:03:23;12.20;;;2.80;;
54865;SDS011;40754;52.094;4.328;2022-10-16T14:05:49;20.23;;;3.20;;
54865;SDS011;40754;52.094;4.328;2022-10-16T14:08:16;12.00;;;2.90;;
54865;SDS011;40754;52.094;4.328;2022-10-16T14:10:41;14.27;;;2.67;;
54865;SDS011;40754;52.094;4.328;2022-10-16T14:13:07;14.85;;;3.05;;
54865;SDS011;40754;52.094;4.328;2022-10-16T14:15:38;15.93;;;3.22;;
54865;SDS011;40754;52.094;4.328;2022-10-16T14:18:03;15.52;;;2.90;;
54865;SDS011;40754;52.094;4.328;2022-10-16T14:20:33;17.38;;;3.80;;
54865;SDS011;40754;52.094;4.328;2022-10-16T14:23:00;11.00;;;2.72;;
54865;SDS011;40754;52.094;4.328;2022-10-16T14:25:28;11.73;;;3.03;;
54865;SDS011;40754;52.094;4.328;2022-10-16T14:30:23;16.25;;;3.05;;
54865;SDS011;40754;52.094;4.328;2022-10-16T14:32:55;13.18;;;2.80;;
54865;SDS011;40754;52.094;4.328;2022-10-16T14:35:23;10.93;;;3.03;;
54865;SDS011;40754;52.094;4.328;2022-10-16T14:37:53;18.33;;;4.18;;
54865;SDS011;40754;52.094;4.328;2022-10-16T14:40:19;14.88;;;3.30;;
54865;SDS011;40754;52.094;4.328;2022-10-16T14:42:51;11.98;;;2.90;;
54865;SDS011;40754;52.094;4.328;2022-10-16T14:45:24;26.63;;;3.25;;
54865;SDS011;40754;52.094;4.328;2022-10-16T14:47:55;17.38;;;3.78;;
54865;SDS011;40754;52.094;4.328;2022-10-16T14:50:23;13.40;;;3.13;;
54865;SDS011;40754;52.094;4.328;2022-10-16T14:52:52;19.05;;;3.55;;
54865;SDS011;40754;52.094;4.328;2022-10-16T14:55:17;15.68;;;3.28;;
54865;SDS011;40754;52.094;4.328;2022-10-16T14:57:43;16.17;;;3.08;;
54865;SDS011;40754;52.094;4.328;2022-10-16T15:00:10;13.50;;;3.00;;
54865;SDS011;40754;52.094;4.328;2022-10-16T15:02:37;15.32;;;3.30;;
54865;SDS011;40754;52.094;4.328;2022-10-16T15:08:28;13.52;;;3.30;;
54865;SDS011;40754;52.094;4.328;2022-10-16T15:10:53;11.35;;;3.00;;
54865;SDS011;40754;52.094;4.328;2022-10-16T15:13:19;20.50;;;3.72;;
54865;SDS011;40754;52.094;4.328;2022-10-16T15:16:00;13.48;;;3.05;;
54865;SDS011;40754;52.094;4.328;2022-10-16T15:18:26;16.58;;;3.85;;
54865;SDS011;40754;52.094;4.328;2022-10-16T15:21:01;16.10;;;3.08;;
54865;SDS011;40754;52.094;4.328;2022-10-16T15:23:29;16.90;;;3.58;;
54865;SDS011;40754;52.094;4.328;2022-10-16T15:26:01;12.43;;;3.00;;
54865;SDS011;40754;52.094;4.328;2022-10-16T15:28:29;17.52;;;3.88;;
54865;SDS011;40754;52.094;4.328;2022-10-16T15:30:55;18.67;;;3.40;;
54865;SDS011;40754;52.094;4.328;2022-10-16T15:33:22;15.38;;;3.08;;
54865;SDS011;40754;52.094;4.328;2022-10-16T15:35:51;10.50;;;2.45;;
54865;SDS011;40754;52.094;4.328;2022-10-16T15:38:17;11.98;;;3.92;;
54865;SDS011;40754;52.094;4.328;2022-10-16T15:40:56;20.08;;;3.53;;
54865;SDS011;40754;52.094;4.328;2022-10-16T15:43:25;23.83;;;3.90;;
54865;SDS011;40754;52.094;4.328;2022-10-16T15:46:01;15.65;;;4.22;;
54865;SDS011;40754;52.094;4.328;2022-10-16T15:48:30;23.25;;;6.75;;
54865;SDS011;40754;52.094;4.328;2022-10-16T15:51:09;18.85;;;4.90;;
54865;SDS011;40754;52.094;4.328;2022-10-16T15:53:36;23.13;;;5.65;;
54865;SDS011;40754;52.094;4.328;2022-10-16T15:56:12;18.27;;;4.20;;
54865;SDS011;40754;52.094;4.328;2022-10-16T15:58:37;13.43;;;3.47;;
54865;SDS011;40754;52.094;4.328;2022-10-16T16:01:03;19.20;;;5.68;;
54865;SDS011;40754;52.094;4.328;2022-10-16T16:03:29;19.77;;;5.05;;
54865;SDS011;40754;52.094;4.328;2022-10-16T16:05:55;19.42;;;4.93;;
54865;SDS011;40754;52.094;4.328;2022-10-16T16:08:20;15.55;;;4.82;;
54865;SDS011;40754;52.094;4.328;2022-10-16T16:10:56;14.15;;;4.50;;
54865;SDS011;40754;52.094;4.328;2022-10-16T16:13:24;16.58;;;4.30;;
54865;SDS011;40754;52.094;4.328;2022-10-16T16:15:50;19.17;;;6.10;;
54865;SDS011;40754;52.094;4.328;2022-10-16T16:18:17;28.10;;;7.35;;
54865;SDS011;40754;52.094;4.328;2022-10-16T16:20:53;27.10;;;7.60;;
54865;SDS011;40754;52.094;4.328;2022-10-16T16:23:19;24.13;;;5.88;;
54865;SDS011;40754;52.094;4.328;2022-10-16T16:25:45;17.70;;;5.45;;
54865;SDS011;40754;52.094;4.328;2022-10-16T16:28:10;17.92;;;5.35;;
54865;SDS011;40754;52.094;4.328;2022-10-16T16:30:51;21.80;;;6.03;;
54865;SDS011;40754;52.094;4.328;2022-10-16T16:33:24;22.33;;;5.80;;
54865;SDS011;40754;52.094;4.328;2022-10-16T16:35:59;20.77;;;6.10;;
54865;SDS011;40754;52.094;4.328;2022-10-16T16:38:25;16.02;;;4.97;;
54865;SDS011;40754;52.094;4.328;2022-10-16T16:40:51;19.65;;;5.22;;
54865;SDS011;40754;52.094;4.328;2022-10-16T16:43:26;13.70;;;4.00;;
54865;SDS011;40754;52.094;4.328;2022-10-16T16:45:54;16.52;;;4.10;;
54865;SDS011;40754;52.094;4.328;2022-10-16T16:48:20;15.77;;;3.75;;
54865;SDS011;40754;52.094;4.328;2022-10-16T16:50:46;17.80;;;3.80;;
54865;SDS011;40754;52.094;4.328;2022-10-16T16:53:11;24.27;;;6.55;;